Etusivu
METAR-TAF:

METAR-TAF

Lentoasemat :

Midland, Michigan, Yhdysvallat

Leveyspiiri: 43-39-46N, Pituuspiiri: 084-15-41W, korkeus merenpinnasta: 194 m

Tämänhetkinen sää

Tämä raportti tehtiin 20 minuuttia sitten, kello 20.36 UTC
Tuuli 6 kn pohjoisen/luoteesta
Lämpötila -3°C
Kosteus 80%
Ilmanpaine 1013 hPa
Näkyvyys: 4.8 km
Hajanaisia pilviä 1300 ft:n korkeudessa
Hajonneita pilviä 2300 ft:n korkeudessa
Pilvistä 2800 ft:n korkeudessa
heikkoa lumisadetta

METAR: KIKW 262036Z AUTO 33006KT 3SM -SN SCT013 BKN023 OVC028 M03/M06 A2991 RMK AO2 T10311058

Aika: 15:56 (20:56 UTC)


TAF: puuttuu

Säähavainnot ja -ennusteet yli 4000 lentoasemalta (METAR- ja TAF-raportit).

Käytössä olevat sääasemat on merkitty karttaan keltaisilla ja punaisilla pisteillä.

Aseta hiiri pisteen päälle nähdäksesi sääaseman nimen.

Klikkaa sitten nähdäksesi säähavainnot ja -ennusteet.

Kartan vaihtaminen: klikkaa mustalla rastilla varustettuja vihreitä pisteitä, niin voit zoomata sisään; viivalla varustettua vihreää pistettä, niin voit zoomata ulos tai vihreitä nuolia, niin pääset viereisille kartoille.


METAR-TAF: